createdAt,value
2022-11-16T00:01:25.453Z,1.31
2022-11-16T00:03:57.434Z,1.32
2022-11-16T00:06:28.594Z,1.32
2022-11-16T00:09:20.505Z,1.33
2022-11-16T00:11:55.594Z,1.34
2022-11-16T00:14:27.731Z,1.35
2022-11-16T00:16:58.000Z,1.37
2022-11-16T00:19:27.896Z,1.39
2022-11-16T00:21:57.435Z,1.38
2022-11-16T00:24:27.598Z,1.39
2022-11-16T00:26:56.761Z,1.40
2022-11-16T00:29:27.844Z,1.41
2022-11-16T00:31:57.739Z,1.40
2022-11-16T00:34:28.431Z,1.41
2022-11-16T00:36:58.703Z,1.42
2022-11-16T00:39:29.402Z,1.41
2022-11-16T00:41:59.397Z,1.41
2022-11-16T00:44:30.235Z,1.42
2022-11-16T00:46:59.774Z,1.42
2022-11-16T00:49:30.063Z,1.40
2022-11-16T00:51:59.262Z,1.38
2022-11-16T00:54:29.128Z,1.32
2022-11-16T00:56:58.990Z,1.27
2022-11-16T00:59:29.062Z,1.22
2022-11-16T01:02:01.188Z,1.13
2022-11-16T01:04:33.602Z,1.08
2022-11-16T01:07:03.204Z,1.05
2022-11-16T01:09:34.605Z,1.03
2022-11-16T01:12:10.070Z,1.01
2022-11-16T01:14:43.964Z,1.01
2022-11-16T01:17:15.131Z,1.00
2022-11-16T01:19:45.761Z,1.01
2022-11-16T01:22:15.786Z,1.02
2022-11-16T01:24:47.567Z,1.03
2022-11-16T01:27:18.055Z,1.05
2022-11-16T01:29:48.928Z,1.07
2022-11-16T01:32:20.158Z,1.09
2022-11-16T01:34:50.414Z,1.10
2022-11-16T01:37:30.543Z,1.12
2022-11-16T01:40:00.331Z,1.15
2022-11-16T01:42:31.960Z,1.18
2022-11-16T01:45:11.411Z,1.18
2022-11-16T01:47:41.300Z,1.17
2022-11-16T01:50:16.471Z,1.21
2022-11-16T01:52:58.082Z,1.24
2022-11-16T01:55:33.621Z,1.26
2022-11-16T01:58:25.883Z,1.26
2022-11-16T02:01:05.656Z,1.22
2022-11-16T02:03:45.841Z,1.20
2022-11-16T02:06:28.090Z,1.18
2022-11-16T02:09:51.922Z,1.16
2022-11-16T02:12:51.942Z,1.11
2022-11-16T02:15:24.208Z,1.05
2022-11-16T02:18:26.556Z,1.00
2022-11-16T02:21:30.523Z,0.97
2022-11-16T02:24:10.356Z,0.93
2022-11-16T02:26:42.158Z,0.87
2022-11-16T02:29:22.163Z,0.82
2022-11-16T02:32:06.973Z,0.76
2022-11-16T02:35:09.639Z,0.71
2022-11-16T02:37:45.442Z,0.65
2022-11-16T02:40:18.335Z,0.62
2022-11-16T02:42:55.202Z,0.60
2022-11-16T02:45:29.835Z,0.56
2022-11-16T02:48:06.854Z,0.54
2022-11-16T02:50:38.966Z,0.51
2022-11-16T02:53:08.592Z,0.50
2022-11-16T02:55:39.263Z,0.48
2022-11-16T02:58:12.862Z,0.47
2022-11-16T03:00:49.360Z,0.45
2022-11-16T03:03:32.634Z,0.43
2022-11-16T03:06:33.788Z,0.42
2022-11-16T03:09:16.776Z,0.43
2022-11-16T03:12:03.751Z,0.41
2022-11-16T03:15:09.893Z,0.34
2022-11-16T03:17:44.911Z,0.34
2022-11-16T03:20:22.839Z,0.35
2022-11-16T03:23:07.103Z,0.36
2022-11-16T03:26:06.846Z,0.39
2022-11-16T03:28:53.289Z,0.41
2022-11-16T03:31:30.440Z,0.44
2022-11-16T03:34:05.365Z,0.46
2022-11-16T03:36:39.131Z,0.48
2022-11-16T03:39:18.191Z,0.49
2022-11-16T03:41:50.136Z,0.48
2022-11-16T03:44:21.731Z,0.46
2022-11-16T03:46:51.012Z,0.44
2022-11-16T03:49:24.449Z,0.43
2022-11-16T03:51:55.030Z,0.41
2022-11-16T03:54:25.227Z,0.40
2022-11-16T03:56:54.765Z,0.40
2022-11-16T03:59:24.821Z,0.38
2022-11-16T04:01:53.790Z,0.37
2022-11-16T04:04:42.697Z,0.38
2022-11-16T04:07:31.045Z,0.40
2022-11-16T04:10:19.227Z,0.41
2022-11-16T04:13:07.922Z,0.43
2022-11-16T04:15:56.539Z,0.46
2022-11-16T04:18:44.571Z,0.48
2022-11-16T04:21:47.156Z,0.48
2022-11-16T04:24:24.029Z,0.44
2022-11-16T04:27:20.054Z,0.41
2022-11-16T04:29:49.296Z,0.40
2022-11-16T04:32:36.772Z,0.42
2022-11-16T04:35:24.620Z,0.42
2022-11-16T04:37:57.234Z,0.43
2022-11-16T04:40:30.897Z,0.44
2022-11-16T04:43:02.265Z,0.46
2022-11-16T04:45:54.379Z,0.48
2022-11-16T04:48:26.617Z,0.51
2022-11-16T04:50:56.683Z,0.51
2022-11-16T04:53:28.433Z,0.52
2022-11-16T04:56:04.820Z,0.51
2022-11-16T04:58:34.818Z,0.49
2022-11-16T05:01:04.864Z,0.48
2022-11-16T05:03:36.060Z,0.44
2022-11-16T05:06:05.672Z,0.42
2022-11-16T05:08:35.229Z,0.40
2022-11-16T05:11:05.393Z,0.39
2022-11-16T05:13:34.382Z,0.38
2022-11-16T05:16:04.619Z,0.39
2022-11-16T05:18:34.568Z,0.39
2022-11-16T05:21:05.132Z,0.38
2022-11-16T05:23:58.123Z,0.38
2022-11-16T05:26:30.928Z,0.37
2022-11-16T05:28:59.789Z,0.37
2022-11-16T05:31:28.570Z,0.36
2022-11-16T05:33:57.317Z,0.38
2022-11-16T05:36:26.859Z,0.39
2022-11-16T05:38:56.479Z,0.39
2022-11-16T05:41:26.998Z,0.39
2022-11-16T05:43:56.609Z,0.41
2022-11-16T05:46:26.348Z,0.44
2022-11-16T05:48:57.155Z,0.50
2022-11-16T05:51:27.162Z,0.54
2022-11-16T05:53:56.359Z,0.56
2022-11-16T05:56:25.179Z,0.58
2022-11-16T05:58:54.648Z,0.55
2022-11-16T06:01:23.561Z,0.61
2022-11-16T06:03:53.559Z,0.67
2022-11-16T06:06:22.147Z,0.76
2022-11-16T06:08:51.348Z,0.88
2022-11-16T06:11:24.633Z,1.01
2022-11-16T06:13:53.836Z,1.16
2022-11-16T06:16:22.623Z,1.31
2022-11-16T06:18:51.371Z,1.43
2022-11-16T06:21:21.324Z,1.58
2022-11-16T06:23:50.941Z,1.65
2022-11-16T06:26:20.331Z,1.70
2022-11-16T06:28:50.452Z,1.75
2022-11-16T06:31:19.340Z,1.76
2022-11-16T06:33:48.345Z,1.81
2022-11-16T06:36:26.742Z,1.80
2022-11-16T06:38:55.535Z,1.76
2022-11-16T06:41:24.735Z,1.65
2022-11-16T06:43:54.656Z,1.50
2022-11-16T06:46:26.604Z,1.45
2022-11-16T06:48:57.240Z,1.45
2022-11-16T06:51:26.376Z,1.45
2022-11-16T06:53:55.115Z,1.43
2022-11-16T06:56:24.222Z,1.43
2022-11-16T06:58:57.524Z,1.45
2022-11-16T07:01:27.700Z,1.47
2022-11-16T07:04:01.238Z,1.46
2022-11-16T07:06:30.681Z,1.43
2022-11-16T07:08:59.488Z,1.43
2022-11-16T07:11:31.082Z,1.44
2022-11-16T07:14:00.070Z,1.46
2022-11-16T07:16:30.236Z,1.46
2022-11-16T07:19:02.270Z,1.49
2022-11-16T07:21:31.956Z,1.55
2022-11-16T07:24:01.873Z,1.57
2022-11-16T07:26:33.323Z,1.60
2022-11-16T07:29:07.765Z,1.65
2022-11-16T07:31:37.253Z,1.68
2022-11-16T07:34:24.291Z,1.72
2022-11-16T07:37:05.754Z,1.74
2022-11-16T07:39:34.901Z,1.80
2022-11-16T07:42:11.892Z,1.83
2022-11-16T07:44:53.822Z,1.84
2022-11-16T07:47:22.524Z,1.88
2022-11-16T07:49:51.807Z,1.96
2022-11-16T07:52:22.746Z,2.03
2022-11-16T07:55:05.938Z,2.10
2022-11-16T07:57:35.459Z,2.15
2022-11-16T08:00:08.883Z,2.20
2022-11-16T08:02:45.857Z,2.28
2022-11-16T08:05:19.352Z,2.38
2022-11-16T08:07:50.083Z,2.51
2022-11-16T08:10:21.961Z,2.63
2022-11-16T08:12:50.946Z,2.77
2022-11-16T08:15:20.548Z,2.90
2022-11-16T08:17:49.231Z,3.04
2022-11-16T08:20:19.047Z,3.18
2022-11-16T08:22:50.187Z,3.33
2022-11-16T08:25:20.000Z,3.46
2022-11-16T08:27:49.915Z,3.56
2022-11-16T08:30:19.615Z,3.60
2022-11-16T08:32:48.510Z,3.56
2022-11-16T08:35:17.551Z,3.63
2022-11-16T08:37:47.009Z,3.69
2022-11-16T08:40:16.310Z,3.68
2022-11-16T08:42:45.006Z,3.66
2022-11-16T08:45:14.085Z,3.64
2022-11-16T08:47:43.696Z,3.58
2022-11-16T08:50:12.397Z,3.52
2022-11-16T08:52:41.275Z,3.51
2022-11-16T08:55:10.823Z,3.48
2022-11-16T08:57:41.129Z,3.48
2022-11-16T09:00:12.888Z,3.52
2022-11-16T09:02:41.409Z,3.60
2022-11-16T09:05:12.420Z,3.76
2022-11-16T09:07:44.336Z,3.93
2022-11-16T09:10:21.630Z,4.10
2022-11-16T09:12:50.791Z,4.31
2022-11-16T09:15:21.067Z,4.54
2022-11-16T09:17:50.152Z,4.74
2022-11-16T09:20:19.032Z,4.90
2022-11-16T09:22:47.660Z,5.02
2022-11-16T09:25:16.403Z,5.12
2022-11-16T09:27:44.899Z,5.25
2022-11-16T09:30:14.085Z,5.40
2022-11-16T09:32:42.632Z,5.56
2022-11-16T09:35:11.367Z,5.67
2022-11-16T09:37:40.134Z,5.75
2022-11-16T09:40:12.411Z,5.73
2022-11-16T09:43:02.298Z,5.69
2022-11-16T09:45:34.047Z,5.78
2022-11-16T09:48:06.559Z,5.71
2022-11-16T09:50:35.110Z,5.66
2022-11-16T09:53:18.329Z,5.62
2022-11-16T09:56:05.146Z,5.69
2022-11-16T09:58:51.862Z,5.75
2022-11-16T10:01:41.745Z,5.69
2022-11-16T10:04:16.667Z,5.62
2022-11-16T10:06:53.611Z,5.64
2022-11-16T10:09:25.298Z,5.66
2022-11-16T10:12:12.313Z,5.69
2022-11-16T10:15:15.814Z,5.72
2022-11-16T10:18:00.276Z,5.82
2022-11-16T10:20:48.410Z,5.95
2022-11-16T10:23:35.493Z,6.12
2022-11-16T10:26:22.649Z,6.25
2022-11-16T10:28:57.594Z,6.32
2022-11-16T10:31:51.773Z,6.38
2022-11-16T10:34:26.383Z,6.33
2022-11-16T10:37:03.571Z,6.31
2022-11-16T10:39:34.468Z,6.47
2022-11-16T10:42:10.571Z,6.49
2022-11-16T10:44:44.842Z,6.58
2022-11-16T10:47:51.477Z,6.68
2022-11-16T10:50:37.757Z,6.79
2022-11-16T10:53:06.452Z,6.80
2022-11-16T10:55:35.536Z,6.87
2022-11-16T10:58:08.126Z,7.04
2022-11-16T11:00:41.777Z,7.13
2022-11-16T11:03:12.183Z,7.20
2022-11-16T11:06:11.349Z,7.25
2022-11-16T11:08:40.339Z,7.23
2022-11-16T11:11:40.456Z,7.10
2022-11-16T11:14:14.465Z,7.08
2022-11-16T11:16:43.360Z,7.00
2022-11-16T11:19:32.114Z,6.95
2022-11-16T11:22:01.425Z,6.69
2022-11-16T11:24:45.850Z,6.66
2022-11-16T11:27:23.390Z,6.70
2022-11-16T11:29:55.462Z,6.76
2022-11-16T11:32:32.304Z,6.86
2022-11-16T11:35:03.099Z,6.91
2022-11-16T11:37:37.562Z,6.93
2022-11-16T11:40:28.875Z,6.91
2022-11-16T11:43:03.906Z,6.99
2022-11-16T11:45:47.384Z,7.15
2022-11-16T11:48:27.456Z,7.36
2022-11-16T11:51:15.738Z,7.70
2022-11-16T11:53:53.437Z,7.91
2022-11-16T11:56:23.363Z,8.04
2022-11-16T11:58:54.696Z,8.26
2022-11-16T12:01:26.247Z,9.29
2022-11-16T12:04:13.363Z,10.66
2022-11-16T12:07:00.972Z,11.29
2022-11-16T12:09:57.845Z,11.21
2022-11-16T12:12:43.936Z,10.80
2022-11-16T12:15:38.118Z,10.59
2022-11-16T12:18:23.701Z,10.10
2022-11-16T12:21:23.206Z,9.64
2022-11-16T12:24:33.686Z,9.05
2022-11-16T12:27:40.149Z,8.71
2022-11-16T12:30:27.672Z,8.47
2022-11-16T12:33:22.980Z,8.29
2022-11-16T12:36:04.265Z,8.08
2022-11-16T12:39:01.309Z,7.89
2022-11-16T12:41:42.489Z,7.74
2022-11-16T12:44:13.121Z,7.64
2022-11-16T12:47:10.791Z,7.64
2022-11-16T12:50:08.760Z,7.61
2022-11-16T12:52:51.269Z,7.58
2022-11-16T12:56:09.428Z,7.53
2022-11-16T12:59:02.878Z,7.51
2022-11-16T13:01:41.495Z,7.50
2022-11-16T13:04:16.629Z,7.50
2022-11-16T13:07:11.415Z,7.47
2022-11-16T13:09:53.630Z,7.44
2022-11-16T13:12:24.572Z,7.45
2022-11-16T13:15:00.440Z,7.42
2022-11-16T13:17:33.161Z,7.38
2022-11-16T13:20:17.154Z,7.40
2022-11-16T13:23:02.841Z,7.41
2022-11-16T13:25:45.954Z,7.38
2022-11-16T13:28:33.451Z,7.32
2022-11-16T13:31:08.620Z,7.29
2022-11-16T13:33:51.264Z,7.26
2022-11-16T13:36:58.831Z,7.25
2022-11-16T13:39:58.438Z,7.25
2022-11-16T13:42:32.446Z,7.27
2022-11-16T13:45:16.492Z,7.30
2022-11-16T13:48:16.798Z,7.32
2022-11-16T13:50:50.628Z,7.31
2022-11-16T13:56:16.277Z,7.31
2022-11-16T13:58:48.096Z,7.29
2022-11-16T14:01:19.192Z,7.25
2022-11-16T14:03:52.751Z,7.21
2022-11-16T14:06:24.731Z,7.17
2022-11-16T14:08:55.297Z,7.14
2022-11-16T14:11:33.158Z,7.13
2022-11-16T14:14:43.616Z,7.11
2022-11-16T14:17:51.224Z,7.07
2022-11-16T14:20:35.059Z,7.01
2022-11-16T14:23:16.644Z,6.98
2022-11-16T14:26:16.256Z,6.96
2022-11-16T14:28:56.931Z,6.94
2022-11-16T14:31:31.248Z,6.93
2022-11-16T14:34:01.162Z,6.93
2022-11-16T14:36:42.648Z,6.94
2022-11-16T14:39:31.811Z,6.94
2022-11-16T14:42:17.796Z,6.90
2022-11-16T14:44:50.089Z,6.85
2022-11-16T14:47:30.941Z,6.83
2022-11-16T14:49:59.723Z,6.80
2022-11-16T14:52:44.292Z,6.79
2022-11-16T14:55:24.952Z,6.78
2022-11-16T14:58:09.512Z,6.76
2022-11-16T15:00:38.907Z,6.75
2022-11-16T15:03:12.291Z,6.73
2022-11-16T15:05:41.098Z,6.71
2022-11-16T15:08:21.451Z,6.68
2022-11-16T15:10:52.573Z,6.67
2022-11-16T15:13:24.457Z,6.66
2022-11-16T15:16:10.973Z,6.66
2022-11-16T15:18:39.649Z,6.64
2022-11-16T15:21:22.643Z,6.62
2022-11-16T15:24:15.420Z,6.60
2022-11-16T15:26:40.413Z,6.58
2022-11-16T15:29:16.952Z,6.58
2022-11-16T15:31:46.448Z,6.57
2022-11-16T15:34:20.237Z,6.57
2022-11-16T15:36:49.493Z,6.57
2022-11-16T15:39:29.032Z,6.57
2022-11-16T15:42:03.238Z,6.57
2022-11-16T15:44:34.798Z,6.58
2022-11-16T15:47:04.480Z,6.58
2022-11-16T15:49:39.475Z,6.57
2022-11-16T15:52:08.133Z,6.54
2022-11-16T15:54:55.959Z,6.52
2022-11-16T15:57:25.465Z,6.49
2022-11-16T15:59:57.269Z,6.46
2022-11-16T16:02:29.212Z,6.42
2022-11-16T16:04:57.977Z,6.38
2022-11-16T16:07:40.382Z,6.36
2022-11-16T16:10:18.086Z,6.32
2022-11-16T16:12:58.125Z,6.31
2022-11-16T16:15:34.305Z,6.31
2022-11-16T16:18:11.787Z,6.31
2022-11-16T16:20:47.638Z,6.31
2022-11-16T16:23:25.229Z,6.31
2022-11-16T16:25:53.811Z,6.30
2022-11-16T16:28:22.708Z,6.30
2022-11-16T16:30:51.493Z,6.31
2022-11-16T16:33:22.231Z,6.31
2022-11-16T16:35:51.318Z,6.31
2022-11-16T16:38:20.004Z,6.31
2022-11-16T16:40:48.791Z,6.31
2022-11-16T16:43:17.692Z,6.32
2022-11-16T16:45:46.779Z,6.35
2022-11-16T16:48:15.361Z,6.37
2022-11-16T16:50:44.150Z,6.38
2022-11-16T16:53:14.408Z,6.42
2022-11-16T16:55:44.283Z,6.45
2022-11-16T16:58:14.613Z,6.45
2022-11-16T17:00:43.546Z,6.46
2022-11-16T17:03:12.486Z,6.47
2022-11-16T17:05:41.181Z,6.47
2022-11-16T17:08:10.371Z,6.48
2022-11-16T17:10:39.695Z,6.51
2022-11-16T17:13:10.406Z,6.52
2022-11-16T17:15:38.993Z,6.53
2022-11-16T17:18:07.677Z,6.55
2022-11-16T17:20:37.505Z,6.56
2022-11-16T17:23:06.171Z,6.58
2022-11-16T17:25:35.165Z,6.59
2022-11-16T17:28:04.258Z,6.61
2022-11-16T17:30:32.946Z,6.62
2022-11-16T17:33:01.426Z,6.63
2022-11-16T17:35:30.213Z,6.64
2022-11-16T17:37:59.110Z,6.65
2022-11-16T17:40:27.689Z,6.67
2022-11-16T17:42:56.884Z,6.69
2022-11-16T17:45:25.480Z,6.71
2022-11-16T17:47:54.768Z,6.74
2022-11-16T17:50:23.252Z,6.76
2022-11-16T17:52:51.729Z,6.77
2022-11-16T17:55:20.311Z,6.78
2022-11-16T17:57:50.227Z,6.78
2022-11-16T18:00:19.317Z,6.78
2022-11-16T18:02:47.702Z,6.82
2022-11-16T18:05:16.282Z,6.87
2022-11-16T18:07:44.767Z,6.88
2022-11-16T18:10:18.895Z,6.87
2022-11-16T18:12:47.869Z,6.85
2022-11-16T18:15:32.111Z,6.83
2022-11-16T18:18:01.318Z,6.83
2022-11-16T18:20:30.207Z,6.82
2022-11-16T18:22:58.587Z,6.81
2022-11-16T18:25:27.169Z,6.80
2022-11-16T18:27:56.469Z,6.81
2022-11-16T18:30:25.055Z,6.82
2022-11-16T18:32:53.737Z,6.82
2022-11-16T18:35:22.321Z,6.84
2022-11-16T18:37:50.805Z,6.85
2022-11-16T18:40:20.107Z,6.85
2022-11-16T18:42:48.890Z,6.84
2022-11-16T18:45:17.378Z,6.85
2022-11-16T18:47:46.564Z,6.85
2022-11-16T18:50:21.323Z,6.81
2022-11-16T18:52:52.848Z,6.80
2022-11-16T18:55:21.428Z,6.81
2022-11-16T18:57:50.112Z,6.83
2022-11-16T19:00:19.727Z,6.84
2022-11-16T19:02:48.073Z,6.84
2022-11-16T19:05:16.678Z,6.85
2022-11-16T19:07:45.206Z,6.86
2022-11-16T19:10:14.709Z,6.87
2022-11-16T19:12:43.083Z,6.92
2022-11-16T19:15:11.520Z,6.95
2022-11-16T19:17:59.288Z,6.97
2022-11-16T19:20:28.865Z,7.00
2022-11-16T19:22:57.754Z,7.02
2022-11-16T19:25:26.903Z,7.01
2022-11-16T19:27:55.745Z,7.00
2022-11-16T19:30:24.223Z,6.99
2022-11-16T19:32:59.568Z,6.99
2022-11-16T19:35:28.560Z,6.99
2022-11-16T19:37:57.607Z,6.99
2022-11-16T19:40:26.135Z,6.97
2022-11-16T19:42:54.817Z,6.93
2022-11-16T19:45:23.400Z,6.92
2022-11-16T19:47:51.856Z,6.89
2022-11-16T19:50:20.273Z,6.88
2022-11-16T19:52:48.650Z,6.85
2022-11-16T19:55:17.005Z,6.84
2022-11-16T19:57:45.465Z,6.83
2022-11-16T20:00:15.205Z,6.85
2022-11-16T20:02:43.892Z,6.87
2022-11-16T20:05:12.479Z,6.87
2022-11-16T20:07:41.094Z,6.90
2022-11-16T20:10:10.255Z,6.93
2022-11-16T20:12:38.759Z,6.95
2022-11-16T20:15:07.845Z,6.94
2022-11-16T20:17:36.308Z,6.91
2022-11-16T20:20:05.405Z,6.88
2022-11-16T20:22:33.996Z,6.86
2022-11-16T20:25:02.778Z,6.85
2022-11-16T20:27:31.269Z,6.83
2022-11-16T20:30:02.646Z,6.83
2022-11-16T20:32:34.156Z,6.82
2022-11-16T20:35:02.741Z,6.81
2022-11-16T20:37:31.189Z,6.80
2022-11-16T20:39:59.591Z,6.80
2022-11-16T20:42:28.081Z,6.80
2022-11-16T20:44:57.788Z,6.80
2022-11-16T20:47:26.267Z,6.81
2022-11-16T20:49:54.957Z,6.82
2022-11-16T20:52:23.618Z,6.83
2022-11-16T20:54:52.227Z,6.84
2022-11-16T20:57:21.019Z,6.84
2022-11-16T20:59:49.806Z,6.84
2022-11-16T21:02:18.272Z,6.84
2022-11-16T21:04:46.865Z,6.83
2022-11-16T21:07:16.144Z,6.81
2022-11-16T21:10:05.024Z,6.80
2022-11-16T21:12:52.449Z,6.79
2022-11-16T21:15:20.930Z,6.78
2022-11-16T21:17:49.511Z,6.78
2022-11-16T21:20:27.465Z,6.77
2022-11-16T21:22:56.817Z,6.76
2022-11-16T21:25:25.382Z,6.75
2022-11-16T21:27:55.214Z,6.75
2022-11-16T21:30:23.902Z,6.74
2022-11-16T21:32:52.693Z,6.74
2022-11-16T21:35:21.407Z,6.73
2022-11-16T21:37:49.958Z,6.75
2022-11-16T21:40:18.943Z,6.77
2022-11-16T21:42:48.044Z,6.79
2022-11-16T21:45:16.932Z,6.82
2022-11-16T21:47:45.721Z,6.84
2022-11-16T21:50:31.599Z,6.87
2022-11-16T21:53:01.218Z,6.89
2022-11-16T21:55:30.620Z,6.91
2022-11-16T21:58:00.148Z,6.92
2022-11-16T22:00:29.122Z,6.94
2022-11-16T22:02:58.115Z,6.95
2022-11-16T22:05:55.573Z,6.96
2022-11-16T22:08:24.320Z,6.96
2022-11-16T22:10:54.482Z,6.97
2022-11-16T22:13:23.176Z,6.97
2022-11-16T22:15:51.744Z,6.97
2022-11-16T22:18:20.439Z,6.98
2022-11-16T22:20:50.137Z,6.97
2022-11-16T22:23:22.831Z,6.96
2022-11-16T22:25:53.043Z,6.95
2022-11-16T22:28:22.453Z,6.96
2022-11-16T22:30:59.729Z,6.96
2022-11-16T22:33:30.207Z,6.96
2022-11-16T22:35:59.583Z,6.96
2022-11-16T22:38:28.760Z,6.96
2022-11-16T22:40:58.477Z,6.96
2022-11-16T22:43:29.507Z,6.96
2022-11-16T22:46:00.141Z,6.96
2022-11-16T22:48:38.231Z,6.95
2022-11-16T22:51:19.944Z,6.95
2022-11-16T22:53:52.917Z,6.95
2022-11-16T22:56:21.812Z,6.94
2022-11-16T22:58:51.228Z,6.93
2022-11-16T23:01:20.848Z,6.92
2022-11-16T23:03:50.221Z,6.92
2022-11-16T23:06:19.563Z,6.91
2022-11-16T23:08:48.687Z,6.90
2022-11-16T23:11:38.719Z,6.90
2022-11-16T23:14:29.517Z,6.88
2022-11-16T23:16:59.120Z,6.87
2022-11-16T23:19:47.376Z,6.87
2022-11-16T23:22:39.615Z,6.86
2022-11-16T23:25:30.613Z,6.86
2022-11-16T23:28:10.617Z,6.86
2022-11-16T23:30:40.684Z,6.85
2022-11-16T23:33:10.953Z,6.84
2022-11-16T23:35:41.029Z,6.84
2022-11-16T23:38:10.531Z,6.85
2022-11-16T23:40:41.717Z,6.83
2022-11-16T23:43:30.705Z,6.82
2022-11-16T23:46:00.146Z,6.80
2022-11-16T23:48:30.045Z,6.79
2022-11-16T23:50:59.498Z,6.78
2022-11-16T23:53:28.653Z,6.79
2022-11-16T23:56:06.022Z,6.79
2022-11-16T23:58:36.581Z,6.80
